Time;durP1;ratioP1;P1;durP2;ratioP2;P2;SDS_P1;SDS_P2;PMS_P1;PMS_P2;Temp;Humidity;BMP_temperature;BMP_pressure;BME280_temperature;BME280_humidity;BME280_pressure;Samples;Min_cycle;Max_cycle;Signal;HPM_P1;HPM_P2
2021/04/26 00:01:31;;;;;;;5.13;3.78;;;9.80;65.10;;;;;;6173627;28;20034;-79
2021/04/26 00:04:31;;;;;;;6.50;4.40;;;9.90;65.50;;;;;;6157046;28;20136;-79
2021/04/26 00:07:32;;;;;;;6.05;3.90;;;10.00;66.50;;;;;;6179151;28;20041;-79
2021/04/26 00:10:33;;;;;;;7.93;4.47;;;10.00;65.10;;;;;;6180730;28;20128;-79
2021/04/26 00:13:33;;;;;;;5.65;4.38;;;10.00;66.60;;;;;;6180249;28;20030;-79
2021/04/26 00:16:35;;;;;;;5.75;4.18;;;9.60;66.20;;;;;;6164394;28;20086;-78
2021/04/26 00:19:35;;;;;;;5.95;4.40;;;9.90;66.90;;;;;;6164778;28;20117;-80
2021/04/26 00:22:36;;;;;;;7.97;4.53;;;9.60;67.00;;;;;;6173777;28;20044;-80
2021/04/26 00:25:36;;;;;;;5.47;4.53;;;9.50;68.40;;;;;;6179901;28;20059;-79
2021/04/26 00:28:37;;;;;;;5.88;4.13;;;9.30;69.90;;;;;;6163751;28;20050;-81
2021/04/26 00:31:38;;;;;;;6.65;4.68;;;9.30;69.70;;;;;;6163606;28;20042;-80
2021/04/26 00:34:38;;;;;;;6.15;4.47;;;9.30;68.90;;;;;;6163539;28;20453;-79
2021/04/26 00:37:39;;;;;;;6.35;4.75;;;9.30;69.60;;;;;;6163696;28;20081;-80
2021/04/26 00:40:40;;;;;;;5.28;4.15;;;9.30;71.30;;;;;;6163600;28;20037;-80
2021/04/26 00:43:40;;;;;;;7.35;4.60;;;9.20;74.20;;;;;;6140508;28;20031;-80
2021/04/26 00:46:41;;;;;;;6.68;4.75;;;9.30;74.60;;;;;;6139983;28;20043;-79
2021/04/26 00:49:41;;;;;;;6.22;4.00;;;9.00;73.90;;;;;;6156424;28;20050;-80
2021/04/26 00:52:42;;;;;;;5.45;4.30;;;9.10;72.70;;;;;;6175633;28;20543;-79
2021/04/26 00:55:43;;;;;;;6.10;4.30;;;9.30;72.50;;;;;;6179399;28;20026;-79
2021/04/26 00:58:44;;;;;;;7.10;4.32;;;8.50;72.00;;;;;;6179756;28;20078;-80
2021/04/26 01:01:45;;;;;;;6.47;4.13;;;9.00;72.20;;;;;;6179196;28;20584;-81
2021/04/26 01:04:46;;;;;;;7.63;4.38;;;9.10;75.10;;;;;;6179254;28;20038;-80
2021/04/26 01:07:47;;;;;;;7.03;4.85;;;9.20;71.40;;;;;;6178378;28;20088;-79
2021/04/26 01:10:47;;;;;;;11.57;4.72;;;9.40;72.40;;;;;;6179502;28;20034;-80
2021/04/26 01:14:25;;;;;;;7.93;4.45;;;9.90;71.80;;;;;;6178969;28;20483;-79
2021/04/26 01:17:26;;;;;;;7.78;4.55;;;9.20;73.60;;;;;;6179038;28;20481;-79
2021/04/26 01:20:48;;;;;;;6.85;4.43;;;9.20;75.30;;;;;;6167142;28;20031;-82
2021/04/26 01:24:11;;;;;;;6.10;4.73;;;9.20;72.80;;;;;;6171752;28;20999;-79
2021/04/26 01:27:11;;;;;;;6.23;4.27;;;8.90;72.90;;;;;;6171988;28;20474;-80
2021/04/26 01:30:18;;;;;;;6.53;4.45;;;8.80;76.80;;;;;;6171428;28;20077;-79
2021/04/26 01:33:21;;;;;;;10.70;4.30;;;8.70;74.60;;;;;;6172766;28;21006;-82
2021/04/26 01:36:23;;;;;;;7.70;4.13;;;8.70;90.40;;;;;;6138376;28;20073;-79
2021/04/26 01:39:24;;;;;;;;;;;8.80;77.20;;;;;;6139401;28;20030;-82
2021/04/26 01:42:24;;;;;;;5.30;4.18;;;8.90;91.60;;;;;;6162696;28;19960;-79
2021/04/26 01:45:26;;;;;;;5.15;4.10;;;;;;;;;;6178449;28;20042;-79
2021/04/26 01:48:27;;;;;;;5.22;3.92;;;;;;;;;;6162154;28;20058;-79
2021/04/26 01:51:28;;;;;;;6.55;3.83;;;8.80;89.10;;;;;;6177896;28;20057;-79
2021/04/26 01:54:29;;;;;;;10.32;4.70;;;;;;;;;;6177959;28;20026;-81
2021/04/26 01:57:30;;;;;;;10.50;4.28;;;;;;;;;;6178007;28;20105;-79
2021/04/26 02:00:32;;;;;;;9.43;5.40;;;8.70;87.30;;;;;;6173868;28;20466;-79
2021/04/26 02:03:33;;;;;;;7.13;4.22;;;8.80;90.10;;;;;;6170871;28;20032;-78
2021/04/26 02:06:33;;;;;;;6.97;4.90;;;8.80;90.20;;;;;;6161115;28;20038;-81
2021/04/26 02:09:38;;;;;;;5.95;4.28;;;9.70;81.20;;;;;;6177702;28;20516;-79
2021/04/26 02:12:39;;;;;;;9.68;4.40;;;9.10;83.20;;;;;;6161567;28;20038;-81
2021/04/26 02:15:39;;;;;;;7.32;4.18;;;9.00;76.50;;;;;;6138752;28;20071;-79
2021/04/26 02:18:40;;;;;;;6.05;4.22;;;9.00;72.80;;;;;;6138132;28;20125;-79
2021/04/26 02:21:41;;;;;;;6.88;4.22;;;9.00;74.80;;;;;;6138089;28;20030;-80
2021/04/26 02:24:41;;;;;;;5.05;4.03;;;9.00;75.90;;;;;;6137782;28;20034;-81
2021/04/26 02:27:42;;;;;;;6.35;4.10;;;9.30;79.70;;;;;;6153872;28;20066;-79
2021/04/26 02:30:43;;;;;;;9.35;3.90;;;8.80;75.20;;;;;;6156009;28;20038;-81
2021/04/26 02:33:56;;;;;;;7.00;4.13;;;8.70;70.60;;;;;;6160934;28;20030;-79
2021/04/26 02:37:02;;;;;;;8.95;4.28;;;8.50;71.40;;;;;;6160861;28;20030;-79
2021/04/26 02:40:09;;;;;;;6.88;4.68;;;9.00;71.90;;;;;;6177057;28;20070;-82
2021/04/26 02:43:09;;;;;;;7.85;4.47;;;8.40;68.90;;;;;;6153640;28;20030;-81
2021/04/26 02:46:10;;;;;;;6.28;4.60;;;8.60;73.20;;;;;;6176370;28;20053;-81
2021/04/26 02:49:11;;;;;;;5.88;4.55;;;8.50;73.30;;;;;;6176775;28;20049;-83
2021/04/26 02:52:12;;;;;;;8.38;4.07;;;8.40;73.70;;;;;;6137492;28;20042;-81
2021/04/26 02:55:13;;;;;;;10.10;4.53;;;8.10;74.80;;;;;;6155523;28;20111;-83
2021/04/26 02:58:14;;;;;;;8.40;4.03;;;7.80;74.80;;;;;;6158474;28;20042;-82
2021/04/26 03:01:14;;;;;;;6.72;4.30;;;8.00;75.20;;;;;;6137432;28;20047;-79
2021/04/26 03:04:16;;;;;;;9.88;4.15;;;8.10;90.80;;;;;;6153489;28;20026;-79
2021/04/26 03:07:17;;;;;;;7.93;4.30;;;8.00;75.30;;;;;;6137125;28;20043;-79
2021/04/26 03:10:18;;;;;;;6.57;4.15;;;8.10;91.10;;;;;;6152970;28;20062;-81
2021/04/26 03:13:18;;;;;;;6.50;4.03;;;8.50;76.30;;;;;;6154293;28;20117;-79
2021/04/26 03:16:19;;;;;;;6.97;4.50;;;8.20;74.80;;;;;;6176244;28;20026;-80
2021/04/26 03:19:20;;;;;;;6.45;4.43;;;8.20;74.90;;;;;;6176291;28;20044;-80
2021/04/26 03:22:21;;;;;;;5.97;4.20;;;9.00;74.80;;;;;;6160518;28;20731;-79
2021/04/26 03:25:22;;;;;;;6.88;4.30;;;8.30;73.70;;;;;;6160142;28;20117;-79
2021/04/26 03:28:23;;;;;;;4.80;4.07;;;8.20;77.10;;;;;;6176363;28;20088;-79
2021/04/26 03:31:23;;;;;;;6.32;4.78;;;8.20;78.00;;;;;;6176638;28;20037;-78
2021/04/26 03:34:24;;;;;;;6.13;4.53;;;7.90;78.70;;;;;;6138118;28;20450;-79
2021/04/26 03:37:25;;;;;;;6.90;4.18;;;8.00;79.50;;;;;;6142302;28;20058;-79
2021/04/26 03:40:26;;;;;;;7.20;4.20;;;8.10;80.10;;;;;;6176260;28;20041;-79
2021/04/26 03:43:26;;;;;;;5.82;4.22;;;7.90;80.40;;;;;;6160196;28;20030;-81
2021/04/26 03:46:27;;;;;;;8.93;3.90;;;7.50;80.20;;;;;;6162760;28;20481;-78
2021/04/26 03:49:27;;;;;;;6.35;4.15;;;7.80;81.50;;;;;;6157279;28;20485;-80
2021/04/26 03:52:28;;;;;;;6.10;4.18;;;7.40;82.60;;;;;;6160007;28;20081;-83
2021/04/26 03:55:28;;;;;;;5.45;4.10;;;7.30;83.10;;;;;;6176290;28;20392;-80
2021/04/26 03:58:29;;;;;;;7.28;4.22;;;7.60;83.70;;;;;;6175751;28;20089;-79
2021/04/26 04:01:30;;;;;;;6.80;4.75;;;7.30;84.80;;;;;;6160218;28;20081;-78
2021/04/26 04:04:30;;;;;;;8.82;4.68;;;7.30;85.00;;;;;;6176372;28;20027;-80
2021/04/26 04:07:31;;;;;;;5.07;4.55;;;7.30;85.40;;;;;;6175658;28;20030;-79
2021/04/26 04:10:31;;;;;;;6.13;4.60;;;6.90;95.10;;;;;;6176022;28;20069;-81
2021/04/26 04:13:32;;;;;;;7.55;4.38;;;6.90;83.80;;;;;;6152074;28;20501;-79
2021/04/26 04:16:33;;;;;;;7.18;4.65;;;6.90;94.30;;;;;;6136475;28;20049;-80
2021/04/26 04:19:33;;;;;;;6.03;4.50;;;6.90;94.10;;;;;;6152547;28;20035;-81
2021/04/26 04:22:34;;;;;;;5.72;4.20;;;7.70;84.80;;;;;;6152982;28;20037;-78
2021/04/26 04:25:34;;;;;;;17.50;11.90;;;6.90;94.10;;;;;;6152879;28;20038;-80
2021/04/26 04:28:36;;;;;;;9.88;7.65;;;7.00;94.80;;;;;;6169993;28;20485;-79
2021/04/26 04:31:37;;;;;;;7.85;5.10;;;6.90;84.60;;;;;;6142867;28;20022;-79
2021/04/26 04:34:37;;;;;;;12.00;4.72;;;;;;;;;;6145302;28;20077;-80
2021/04/26 04:37:38;;;;;;;9.18;5.25;;;;;;;;;;6172217;28;20034;-80
2021/04/26 04:40:39;;;;;;;9.02;4.65;;;6.50;93.30;;;;;;6174477;28;20377;-79
2021/04/26 04:43:40;;;;;;;12.38;8.25;;;;;;;;;;6156405;28;20069;-79
2021/04/26 04:46:41;;;;;;;11.50;5.82;;;6.60;93.40;;;;;;6172153;28;20138;-81
2021/04/26 04:49:42;;;;;;;9.65;5.40;;;;;;;;;;6165502;28;20496;-79
2021/04/26 04:52:43;;;;;;;8.95;5.13;;;;;;;;;;6193890;28;20039;-80
2021/04/26 04:55:44;;;;;;;7.05;4.63;;;;;;;;;;6162851;28;20599;-79
2021/04/26 04:58:45;;;;;;;8.82;4.70;;;;;;;;;;6190156;28;20041;-79
2021/04/26 05:01:46;;;;;;;7.60;4.75;;;;;;;;;;6189712;28;20050;-78
2021/04/26 05:04:47;;;;;;;8.25;4.93;;;;;;;;;;6155938;28;20727;-78
2021/04/26 05:07:48;;;;;;;9.73;5.45;;;;;;;;;;6178601;28;20034;-78
2021/04/26 05:10:49;;;;;;;7.20;5.00;;;;;;;;;;6186547;28;20473;-79
2021/04/26 05:13:50;;;;;;;5.40;4.05;;;7.30;95.20;;;;;;6176180;28;20401;-77
2021/04/26 05:16:51;;;;;;;7.60;4.95;;;7.70;95.50;;;;;;6172100;28;20081;-78
2021/04/26 05:19:51;;;;;;;8.00;4.80;;;7.70;91.00;;;;;;6139530;28;20130;-78
2021/04/26 05:22:53;;;;;;;5.88;4.43;;;7.90;90.80;;;;;;6157990;28;20492;-79
2021/04/26 05:25:54;;;;;;;8.50;4.45;;;8.20;90.70;;;;;;6163698;28;20108;-77
2021/04/26 05:28:54;;;;;;;8.95;4.97;;;8.40;90.10;;;;;;6179246;28;20500;-78
2021/04/26 05:31:55;;;;;;;7.10;4.60;;;9.20;89.70;;;;;;6162788;28;20034;-77
2021/04/26 05:34:55;;;;;;;9.27;4.55;;;9.40;89.00;;;;;;6178538;28;20404;-79
2021/04/26 05:37:56;;;;;;;9.98;5.03;;;9.70;87.90;;;;;;6179079;28;20165;-77
2021/04/26 05:40:58;;;;;;;5.45;4.50;;;9.80;87.50;;;;;;6162048;28;20041;-77
2021/04/26 05:43:58;;;;;;;6.50;4.55;;;9.90;86.10;;;;;;6160960;28;20023;-77
2021/04/26 05:46:59;;;;;;;15.38;4.85;;;;;;;;;;6162326;28;20509;-77
2021/04/26 05:50:00;;;;;;;16.20;5.22;;;12.20;91.80;;;;;;6154038;28;20430;-77
2021/04/26 05:53:00;;;;;;;9.90;4.47;;;12.80;90.00;;;;;;6154379;28;20114;-77
2021/04/26 05:56:01;;;;;;;6.38;4.60;;;13.00;85.10;;;;;;6170425;28;20070;-78
2021/04/26 05:59:02;;;;;;;7.72;4.45;;;13.80;65.90;;;;;;6150047;28;20019;-78
2021/04/26 06:02:03;;;;;;;7.22;4.57;;;12.80;83.40;;;;;;6162313;28;20062;-77
2021/04/26 06:05:04;;;;;;;7.43;4.20;;;12.90;65.50;;;;;;6146695;28;20033;-78
2021/04/26 06:08:04;;;;;;;7.57;4.32;;;13.20;64.30;;;;;;6169181;28;20089;-80
2021/04/26 06:11:05;;;;;;;12.07;4.95;;;12.60;78.20;;;;;;6153360;28;20631;-77
2021/04/26 06:14:05;;;;;;;6.35;4.93;;;12.50;66.10;;;;;;6163537;28;20106;-78
2021/04/26 06:17:06;;;;;;;9.10;4.95;;;12.20;80.10;;;;;;6138182;28;20038;-78
2021/04/26 06:20:07;;;;;;;7.20;4.63;;;12.20;66.60;;;;;;6169717;28;20441;-80
2021/04/26 06:23:08;;;;;;;8.05;4.80;;;12.20;65.60;;;;;;6166072;28;20027;-78
2021/04/26 06:26:08;;;;;;;8.82;4.30;;;12.50;84.20;;;;;;6162534;28;20031;-79
2021/04/26 06:29:09;;;;;;;6.95;4.53;;;12.60;66.10;;;;;;6159801;28;20050;-79
2021/04/26 06:32:10;;;;;;;8.30;4.70;;;13.00;65.10;;;;;;6157963;28;20386;-79
2021/04/26 06:35:11;;;;;;;8.82;5.75;;;13.40;64.30;;;;;;6145911;28;20078;-79
2021/04/26 06:38:12;;;;;;;6.18;4.10;;;;;;;;;;6144443;28;20039;-80
2021/04/26 06:41:13;;;;;;;7.97;4.68;;;13.10;58.40;;;;;;6154801;28;20363;-79
2021/04/26 06:44:13;;;;;;;11.27;4.78;;;14.20;61.70;;;;;;6162048;28;20055;-80
2021/04/26 06:47:14;;;;;;;5.80;4.95;;;15.20;78.00;;;;;;6145053;28;20486;-82
2021/04/26 06:50:15;;;;;;;10.27;4.65;;;14.80;59.60;;;;;;6160949;28;20134;-79
2021/04/26 06:53:16;;;;;;;6.72;4.43;;;15.30;57.70;;;;;;6152549;28;20034;-80
2021/04/26 06:56:16;;;;;;;7.53;4.57;;;15.50;55.80;;;;;;6144999;28;20064;-81
2021/04/26 06:59:17;;;;;;;6.65;4.22;;;15.80;54.90;;;;;;6145093;28;20431;-80
2021/04/26 07:02:17;;;;;;;9.98;4.60;;;15.90;69.00;;;;;;6165063;28;20030;-78
2021/04/26 07:05:18;;;;;;;7.88;4.97;;;16.00;52.80;;;;;;6141501;28;20102;-81
2021/04/26 07:08:19;;;;;;;5.28;4.60;;;16.20;51.90;;;;;;6149091;28;20046;-79
2021/04/26 07:11:19;;;;;;;6.63;4.60;;;16.30;52.00;;;;;;6162612;28;20517;-79
2021/04/26 07:14:20;;;;;;;7.05;4.60;;;16.50;50.80;;;;;;6134183;28;20066;-78
2021/04/26 07:17:23;;;;;;;8.00;4.57;;;16.50;49.90;;;;;;6131205;28;20031;-81
2021/04/26 07:20:23;;;;;;;9.77;4.60;;;16.50;51.20;;;;;;6153411;28;20027;-84
2021/04/26 07:23:24;;;;;;;7.78;5.47;;;16.60;50.80;;;;;;6129087;28;20146;-80
2021/04/26 07:26:25;;;;;;;11.73;5.10;;;17.10;66.70;;;;;;6152178;28;20474;-79
2021/04/26 07:29:25;;;;;;;9.75;5.53;;;17.20;50.40;;;;;;6135661;28;20047;-79
2021/04/26 07:32:26;;;;;;;10.98;5.00;;;17.80;49.70;;;;;;6157679;28;20035;-80
2021/04/26 07:35:27;;;;;;;6.65;4.47;;;18.00;48.40;;;;;;6145789;28;20042;-79
2021/04/26 07:38:27;;;;;;;7.90;4.90;;;18.00;47.90;;;;;;6142377;28;20046;-79
2021/04/26 07:41:28;;;;;;;8.20;4.88;;;18.20;47.40;;;;;;6128353;28;20031;-79
2021/04/26 07:44:29;;;;;;;6.70;4.78;;;18.40;47.80;;;;;;6144211;28;20058;-79
2021/04/26 07:47:29;;;;;;;8.38;4.70;;;18.80;48.40;;;;;;6162090;28;20051;-79
2021/04/26 07:50:30;;;;;;;7.50;4.20;;;19.10;46.60;;;;;;6152600;28;20122;-81
2021/04/26 07:53:31;;;;;;;7.60;4.40;;;19.10;46.50;;;;;;6147506;28;20086;-78
2021/04/26 07:56:32;;;;;;;6.85;4.43;;;19.20;45.60;;;;;;6142604;28;20032;-79
2021/04/26 07:59:32;;;;;;;7.57;4.80;;;18.70;45.80;;;;;;6158186;28;20160;-80
2021/04/26 08:02:33;;;;;;;6.97;4.80;;;18.10;47.50;;;;;;6147489;28;20062;-80
2021/04/26 08:05:34;;;;;;;8.48;4.53;;;17.50;49.00;;;;;;6167060;28;20038;-79
2021/04/26 08:08:35;;;;;;;8.15;4.75;;;16.80;50.20;;;;;;6170390;28;20066;-82
2021/04/26 08:11:35;;;;;;;10.93;4.70;;;16.30;52.60;;;;;;6168656;28;20043;-79
2021/04/26 08:14:36;;;;;;;11.10;4.53;;;16.30;51.90;;;;;;6131950;28;20389;-79
2021/04/26 08:17:37;;;;;;;6.07;4.28;;;16.90;52.40;;;;;;6145027;28;20045;-82
2021/04/26 08:20:38;;;;;;;8.30;4.60;;;16.50;52.50;;;;;;6140867;28;20480;-78
2021/04/26 08:23:42;;;;;;;7.65;4.45;;;16.70;52.20;;;;;;6171993;28;20035;-83
2021/04/26 08:26:43;;;;;;;7.50;5.05;;;16.80;52.00;;;;;;6156293;28;20058;-79
2021/04/26 08:29:44;;;;;;;7.88;4.75;;;17.10;50.40;;;;;;6165440;28;20055;-80
2021/04/26 08:32:44;;;;;;;8.85;5.25;;;17.30;51.20;;;;;;6148151;28;20114;-79
2021/04/26 08:35:45;;;;;;;8.73;5.05;;;17.70;51.60;;;;;;6172108;28;20027;-79
2021/04/26 08:38:46;;;;;;;10.23;5.15;;;18.10;50.20;;;;;;6159635;28;20031;-79
2021/04/26 08:41:47;;;;;;;10.60;4.57;;;18.30;49.00;;;;;;6148106;28;20034;-79
2021/04/26 08:44:47;;;;;;;10.43;5.40;;;18.00;49.00;;;;;;6148750;28;20037;-81
2021/04/26 08:47:48;;;;;;;7.07;5.15;;;17.40;50.50;;;;;;6147990;28;20502;-83
2021/04/26 08:50:48;;;;;;;11.70;5.50;;;17.20;51.20;;;;;;6163838;28;20035;-78
2021/04/26 08:53:49;;;;;;;9.43;4.85;;;17.00;68.20;;;;;;6139689;28;20074;-84
2021/04/26 08:56:50;;;;;;;9.13;5.60;;;16.90;81.10;;;;;;6147504;28;20031;-82
2021/04/26 08:59:51;;;;;;;9.43;6.03;;;16.90;74.90;;;;;;6149938;28;20055;-79
2021/04/26 09:02:52;;;;;;;8.68;5.10;;;16.90;69.00;;;;;;6163882;28;20019;-79
2021/04/26 09:05:53;;;;;;;8.10;4.53;;;16.40;83.60;;;;;;6171802;28;20742;-80
2021/04/26 09:08:54;;;;;;;9.13;5.25;;;;;;;;;;6145885;28;20170;-77
2021/04/26 09:11:54;;;;;;;8.65;4.95;;;17.70;81.00;;;;;;6163914;28;20458;-80
2021/04/26 09:14:58;;;;;;;8.55;5.15;;;19.00;81.10;;;;;;6131575;28;20389;-79
2021/04/26 09:17:59;;;;;;;12.20;5.03;;;18.80;62.90;;;;;;6164046;28;20035;-80
2021/04/26 09:21:13;;;;;;;8.73;5.18;;;19.80;60.00;;;;;;6170947;28;20109;-79
2021/04/26 09:24:17;;;;;;;7.30;5.20;;;19.70;47.40;;;;;;6170688;28;20408;-78
2021/04/26 09:27:18;;;;;;;6.82;4.53;;;20.30;56.10;;;;;;6144672;28;20027;-79
2021/04/26 09:30:47;;;;;;;6.95;4.68;;;20.70;57.60;;;;;;6146940;28;20438;-80
2021/04/26 09:33:48;;;;;;;7.95;5.03;;;20.40;46.70;;;;;;6165174;28;20102;-79
2021/04/26 09:36:49;;;;;;;9.13;4.90;;;20.70;58.20;;;;;;6138858;28;20027;-81
2021/04/26 09:40:11;;;;;;;7.50;4.72;;;21.00;57.50;;;;;;6150876;28;20034;-81
2021/04/26 09:43:21;;;;;;;8.87;4.87;;;21.50;47.00;;;;;;6154323;28;20027;-78
2021/04/26 09:46:22;;;;;;;7.68;5.20;;;21.70;72.20;;;;;;6173241;28;20046;-81
2021/04/26 09:49:25;;;;;;;9.43;5.15;;;21.70;56.10;;;;;;6178424;28;20045;-80
2021/04/26 09:52:25;;;;;;;13.95;4.95;;;21.90;46.00;;;;;;6176257;28;20030;-81
2021/04/26 09:55:30;;;;;;;9.13;4.63;;;21.60;45.40;;;;;;6155227;28;20474;-83
2021/04/26 09:58:31;;;;;;;7.85;4.75;;;21.70;44.20;;;;;;6172261;28;20145;-83
2021/04/26 10:01:31;;;;;;;10.05;5.07;;;22.10;46.60;;;;;;6167186;28;20041;-83
2021/04/26 10:04:32;;;;;;;11.82;4.90;;;22.10;45.20;;;;;;6147123;28;20058;-83
2021/04/26 10:07:33;;;;;;;8.80;4.38;;;22.10;45.10;;;;;;6156878;28;20030;-83
2021/04/26 10:10:33;;;;;;;6.82;5.03;;;22.40;45.10;;;;;;6173387;28;20466;-81
2021/04/26 10:13:34;;;;;;;6.68;4.30;;;22.40;44.00;;;;;;6153662;28;20033;-82
2021/04/26 10:16:45;;;;;;;9.25;4.63;;;22.50;42.30;;;;;;6152956;28;20035;-80
2021/04/26 10:19:52;;;;;;;8.20;4.72;;;24.40;44.50;;;;;;6173627;28;20026;-80
2021/04/26 10:22:52;;;;;;;12.63;5.60;;;22.40;44.00;;;;;;6178928;28;20026;-85
2021/04/26 10:25:53;;;;;;;10.50;4.88;;;22.50;43.80;;;;;;6143371;28;20038;-86
2021/04/26 10:29:17;;;;;;;12.00;4.97;;;22.10;43.20;;;;;;6142676;28;20177;-83
2021/04/26 10:32:17;;;;;;;10.82;4.85;;;22.50;42.60;;;;;;6166856;28;20420;-80
2021/04/26 10:35:18;;;;;;;5.72;4.82;;;22.60;44.50;;;;;;6171430;28;20034;-80
2021/04/26 10:38:34;;;;;;;7.78;4.75;;;22.80;44.70;;;;;;6136091;28;20326;-80
2021/04/26 10:41:59;;;;;;;8.23;4.85;;;23.10;45.30;;;;;;6176807;28;20503;-81
2021/04/26 10:45:00;;;;;;;8.75;5.00;;;23.30;44.30;;;;;;6176253;28;20053;-80
2021/04/26 10:48:06;;;;;;;8.57;4.70;;;23.60;42.60;;;;;;6160301;28;20154;-79
2021/04/26 10:51:20;;;;;;;9.50;4.85;;;23.50;43.80;;;;;;6193963;28;20354;-79
2021/04/26 10:54:39;;;;;;;8.23;5.05;;;23.50;43.50;;;;;;6176695;28;20449;-80
2021/04/26 10:57:41;;;;;;;7.25;4.55;;;23.40;43.20;;;;;;6166668;28;20035;-81
2021/04/26 11:00:44;;;;;;;7.72;5.00;;;23.10;43.20;;;;;;6159296;28;20058;-81
2021/04/26 11:03:45;;;;;;;7.57;5.07;;;23.10;42.60;;;;;;6153872;28;20105;-80
2021/04/26 11:06:59;;;;;;;6.70;4.40;;;23.30;43.40;;;;;;6152631;28;20030;-83
2021/04/26 11:09:59;;;;;;;6.43;4.88;;;23.50;42.90;;;;;;6152491;28;20125;-82
2021/04/26 11:13:21;;;;;;;6.13;4.53;;;23.60;42.50;;;;;;6142913;28;20374;-82
2021/04/26 11:16:32;;;;;;;;;;;23.60;41.70;;;;;;6155437;28;20469;-82
2021/04/26 11:19:34;;;;;;;9.68;4.45;;;24.00;40.70;;;;;;6149654;28;19917;-85
2021/04/26 11:22:34;;;;;;;8.18;4.85;;;24.10;42.70;;;;;;6123312;28;20069;-85
2021/04/26 11:25:39;;;;;;;5.57;4.38;;;24.10;41.60;;;;;;6142526;28;20045;-84
2021/04/26 11:29:02;;;;;;;5.80;4.50;;;24.10;40.90;;;;;;6135694;28;20371;-83
2021/04/26 11:32:04;;;;;;;6.55;4.38;;;23.50;40.30;;;;;;6171093;28;20093;-83
2021/04/26 11:35:05;;;;;;;;;;;24.10;40.60;;;;;;6159329;28;20105;-87
2021/04/26 11:38:06;;;;;;;6.82;4.70;;;24.10;41.50;;;;;;6171756;28;19914;-80
2021/04/26 11:41:07;;;;;;;7.60;4.55;;;24.00;39.90;;;;;;6153111;28;20488;-79
2021/04/26 11:44:08;;;;;;;9.20;4.97;;;24.00;39.10;;;;;;6156215;28;20038;-79
2021/04/26 11:47:10;;;;;;;7.25;4.75;;;23.80;36.20;;;;;;6143042;28;20574;-80
2021/04/26 11:50:11;;;;;;;;;;;23.60;35.60;;;;;;6158177;28;20045;-79
2021/04/26 11:53:21;;;;;;;6.47;4.80;;;23.60;39.20;;;;;;6178511;28;19910;-79
2021/04/26 11:56:22;;;;;;;8.00;4.57;;;23.30;41.60;;;;;;6161016;28;20030;-78
2021/04/26 11:59:23;;;;;;;6.65;4.57;;;23.10;41.90;;;;;;6151388;28;20073;-79
2021/04/26 12:02:28;;;;;;;6.07;4.55;;;22.80;72.20;;;;;;6167547;28;20370;-87
2021/04/26 12:05:28;;;;;;;7.75;5.22;;;22.90;72.70;;;;;;6141309;28;20523;-89
2021/04/26 12:08:44;;;;;;;5.57;4.47;;;22.70;70.90;;;;;;6152634;28;20034;-88
2021/04/26 12:11:45;;;;;;;6.18;4.72;;;22.70;70.20;;;;;;6172709;28;20030;-86
2021/04/26 12:14:46;;;;;;;6.55;4.80;;;;;;;;;;6138979;28;20397;-87
2021/04/26 12:17:56;;;;;;;5.68;4.50;;;22.60;47.40;;;;;;6154358;28;20027;-87
2021/04/26 12:20:57;;;;;;;9.00;4.40;;;;;;;;;;6162016;28;20030;-86
2021/04/26 12:23:58;;;;;;;7.40;4.72;;;22.30;64.80;;;;;;6177062;28;20033;-86
2021/04/26 12:26:59;;;;;;;7.03;4.82;;;22.30;47.80;;;;;;6144681;28;20042;-85
2021/04/26 12:30:19;;;;;;;6.40;4.55;;;22.10;47.60;;;;;;6149784;28;20048;-85
2021/04/26 12:33:23;;;;;;;9.18;4.68;;;22.50;65.40;;;;;;6144719;28;20058;-84
2021/04/26 12:36:24;;;;;;;6.00;4.20;;;;;;;;;;6137499;28;20031;-84
2021/04/26 12:39:25;;;;;;;7.28;4.88;;;22.70;44.50;;;;;;6152324;28;20397;-82
2021/04/26 12:42:26;;;;;;;6.63;4.10;;;;;;;;;;6135421;28;20034;-85
2021/04/26 12:45:47;;;;;;;8.75;4.22;;;22.00;47.20;;;;;;6152414;28;20477;-84
2021/04/26 12:48:48;;;;;;;27.65;5.22;;;;;;;;;;6152599;28;20098;-79
2021/04/26 12:51:49;;;;;;;10.10;4.78;;;;;;;;;;6182907;28;20027;-84
2021/04/26 12:55:05;;;;;;;4.82;4.32;;;22.50;47.80;;;;;;6187487;28;20057;-87
2021/04/26 12:58:19;;;;;;;5.93;4.20;;;22.30;56.80;;;;;;6143676;28;20121;-82
2021/04/26 13:01:25;;;;;;;5.35;4.00;;;22.20;64.70;;;;;;6170106;28;20030;-83
2021/04/26 13:04:33;;;;;;;11.63;4.97;;;21.90;47.70;;;;;;6149344;28;20402;-80
2021/04/26 13:07:33;;;;;;;5.93;4.28;;;21.50;63.40;;;;;;6144571;28;20043;-83
2021/04/26 13:10:37;;;;;;;6.30;3.80;;;21.30;65.40;;;;;;6163020;28;20045;-82
2021/04/26 13:13:55;;;;;;;7.07;4.38;;;21.40;64.00;;;;;;6166511;28;20129;-84
2021/04/26 13:17:03;;;;;;;8.32;4.30;;;21.10;65.50;;;;;;6162830;28;20034;-82
2021/04/26 13:20:21;;;;;;;6.00;4.07;;;20.90;64.70;;;;;;6148629;28;20030;-80
2021/04/26 13:23:23;;;;;;;4.85;3.65;;;21.00;64.60;;;;;;6159714;28;20037;-80
2021/04/26 13:26:31;;;;;;;5.43;4.05;;;20.90;65.00;;;;;;6159665;28;20102;-84
2021/04/26 13:29:32;;;;;;;8.50;4.43;;;20.60;65.30;;;;;;6180800;28;20100;-81
2021/04/26 13:32:33;;;;;;;9.63;4.38;;;;;;;;;;6178167;28;20105;-79
2021/04/26 13:35:34;;;;;;;4.97;3.50;;;;;;;;;;6156623;28;20046;-80
2021/04/26 13:38:35;;;;;;;7.13;3.90;;;;;;;;;;6171564;28;20065;-79
2021/04/26 13:41:36;;;;;;;4.50;4.00;;;20.80;55.40;;;;;;6172792;28;20034;-79
2021/04/26 13:44:37;;;;;;;5.70;3.95;;;;;;;;;;6157508;28;20030;-79
2021/04/26 13:47:39;;;;;;;5.85;4.22;;;;;;;;;;6155324;28;20050;-82
2021/04/26 13:50:39;;;;;;;5.65;3.95;;;20.50;47.80;;;;;;6151444;28;20034;-81
2021/04/26 13:53:40;;;;;;;7.43;4.40;;;20.70;50.00;;;;;;6152379;28;20041;-77
2021/04/26 13:56:41;;;;;;;4.18;3.60;;;20.80;50.90;;;;;;6161199;28;20066;-78
2021/04/26 13:59:42;;;;;;;5.80;4.15;;;21.10;35.20;;;;;;6144844;28;20026;-79
2021/04/26 14:02:42;;;;;;;6.80;3.88;;;21.30;33.90;;;;;;6143593;28;20034;-82
2021/04/26 14:05:43;;;;;;;7.57;4.00;;;21.40;34.90;;;;;;6142241;28;20027;-82
2021/04/26 14:08:44;;;;;;;6.70;3.90;;;21.60;37.50;;;;;;6168929;28;20045;-82
2021/04/26 14:11:46;;;;;;;6.15;4.28;;;;;;;;;;6165700;28;20042;-81
2021/04/26 14:14:47;;;;;;;9.30;4.40;;;22.10;29.90;;;;;;6168237;28;20121;-82
2021/04/26 14:17:48;;;;;;;5.90;4.05;;;22.00;38.20;;;;;;6141476;28;20041;-82
2021/04/26 14:20:49;;;;;;;4.40;3.90;;;22.10;35.10;;;;;;6165252;28;20035;-82
2021/04/26 14:23:49;;;;;;;10.63;4.75;;;22.10;36.00;;;;;;6154275;28;20038;-82
2021/04/26 14:26:50;;;;;;;6.82;4.00;;;22.50;35.20;;;;;;6169457;28;20034;-82
2021/04/26 14:29:51;;;;;;;6.72;4.50;;;21.80;35.80;;;;;;6149839;28;20134;-82
2021/04/26 14:32:52;;;;;;;7.40;3.70;;;;;;;;;;6140846;28;20037;-82
2021/04/26 14:35:52;;;;;;;6.63;4.10;;;21.60;52.10;;;;;;6144383;28;20073;-83
2021/04/26 14:38:53;;;;;;;6.28;4.40;;;21.90;36.90;;;;;;6139978;28;20027;-84
2021/04/26 14:41:58;;;;;;;8.57;4.53;;;21.50;36.20;;;;;;6142756;28;20138;-83
2021/04/26 14:44:59;;;;;;;9.48;4.38;;;21.50;39.60;;;;;;6136392;28;20030;-83
2021/04/26 14:48:00;;;;;;;6.55;4.70;;;21.90;39.70;;;;;;6136655;28;20158;-83
2021/04/26 14:51:01;;;;;;;6.22;4.57;;;21.30;38.10;;;;;;6155632;28;20037;-82
2021/04/26 14:54:01;;;;;;;7.35;4.60;;;20.90;54.10;;;;;;6151486;28;20031;-82
2021/04/26 14:57:02;;;;;;;6.70;4.78;;;20.80;38.50;;;;;;6164666;28;20058;-83
2021/04/26 15:00:06;;;;;;;12.73;4.22;;;20.60;37.30;;;;;;6153444;28;20038;-84
2021/04/26 15:03:07;;;;;;;7.38;4.75;;;20.70;40.90;;;;;;6156904;28;20057;-84
2021/04/26 15:06:08;;;;;;;7.15;4.78;;;;;;;;;;6161705;28;20033;-83
2021/04/26 15:09:09;;;;;;;6.25;4.35;;;20.70;35.40;;;;;;6176424;28;20374;-85
2021/04/26 15:12:09;;;;;;;7.90;4.28;;;20.80;36.90;;;;;;6160238;28;20034;-84
2021/04/26 15:15:11;;;;;;;6.13;4.55;;;21.60;38.50;;;;;;6155531;28;20681;-82
2021/04/26 15:18:15;;;;;;;6.90;4.20;;;21.00;36.20;;;;;;6169316;28;20035;-82
2021/04/26 15:21:16;;;;;;;8.85;4.75;;;20.90;37.90;;;;;;6141164;28;20385;-83
2021/04/26 15:24:16;;;;;;;7.93;4.28;;;20.70;37.70;;;;;;6152891;28;20061;-82
2021/04/26 15:27:17;;;;;;;8.63;4.57;;;20.60;38.20;;;;;;6137297;28;20157;-82
2021/04/26 15:30:18;;;;;;;6.50;4.20;;;20.30;40.30;;;;;;6152892;28;20042;-83
2021/04/26 15:33:19;;;;;;;5.07;4.03;;;20.40;40.00;;;;;;6146010;28;20030;-86
2021/04/26 15:36:19;;;;;;;7.70;5.03;;;20.50;40.50;;;;;;6156072;28;20086;-83
2021/04/26 15:39:20;;;;;;;4.50;3.95;;;;;;;;;;6140125;28;20031;-84
2021/04/26 15:42:21;;;;;;;5.35;4.10;;;20.40;35.10;;;;;;6154023;28;20409;-81
2021/04/26 15:45:22;;;;;;;5.72;4.25;;;20.40;39.90;;;;;;6155351;28;20030;-81
2021/04/26 15:48:22;;;;;;;6.65;4.30;;;20.20;36.90;;;;;;6156287;28;20556;-82
2021/04/26 15:51:23;;;;;;;7.50;4.43;;;20.30;39.40;;;;;;6158217;28;20030;-82
2021/04/26 15:54:24;;;;;;;5.03;4.50;;;20.40;40.10;;;;;;6176230;28;20587;-78
2021/04/26 15:57:26;;;;;;;6.22;4.65;;;20.30;38.80;;;;;;6193069;28;20057;-78
2021/04/26 16:00:27;;;;;;;6.60;4.22;;;20.10;36.50;;;;;;6179301;28;20041;-77
2021/04/26 16:03:28;;;;;;;7.07;4.38;;;20.00;36.20;;;;;;6155481;28;20081;-77
2021/04/26 16:06:28;;;;;;;8.45;4.82;;;20.00;37.60;;;;;;6166861;28;20035;-77